Time;durP1;ratioP1;P1;durP2;ratioP2;P2;SDS_P1;SDS_P2;PMS_P1;PMS_P2;Temp;Humidity;BMP_temperature;BMP_pressure;BME280_temperature;BME280_humidity;BME280_pressure;Samples;Min_cycle;Max_cycle;Signal;HPM_P1;HPM_P2
2021/11/17 02:26:28;;;;;;;24.33;13.70;;;9.20;99.90;;;;;;5098717;28;20032;-64
2021/11/17 02:29:19;;;;;;;27.25;15.38;;;9.10;99.90;;;;;;5099423;28;20028;-64
2021/11/17 02:32:15;;;;;;;20.70;13.00;;;9.10;99.90;;;;;;5099756;28;20020;-64
2021/11/17 02:34:56;;;;;;;20.02;13.68;;;9.30;99.90;;;;;;5098454;28;20027;-64
2021/11/17 02:37:49;;;;;;;24.25;14.82;;;9.40;99.90;;;;;;5098719;28;20020;-64
2021/11/17 02:40:33;;;;;;;29.00;16.33;;;9.80;99.90;;;;;;5099123;28;20103;-64
2021/11/17 02:43:31;;;;;;;27.98;16.92;;;9.50;99.90;;;;;;5097020;28;20044;-64
2021/11/17 02:45:59;;;;;;;26.55;15.25;;;9.90;99.90;;;;;;5097389;28;20028;-63
2021/11/17 02:48:40;;;;;;;26.83;15.68;;;9.90;99.90;;;;;;5098469;28;20083;-64
2021/11/17 02:51:16;;;;;;;26.13;15.05;;;9.30;99.90;;;;;;5097086;28;20077;-64
2021/11/17 02:54:01;;;;;;;28.55;13.75;;;9.80;99.90;;;;;;5096973;28;20525;-64
2021/11/17 02:56:44;;;;;;;21.75;14.30;;;9.90;99.90;;;;;;5098354;28;20051;-64
2021/11/17 02:59:19;;;;;;;25.83;13.38;;;9.80;99.90;;;;;;5098479;28;20024;-64
2021/11/17 03:02:15;;;;;;;20.13;12.73;;;10.30;99.90;;;;;;5096786;28;20028;-64
2021/11/17 03:05:03;;;;;;;21.55;13.20;;;9.90;99.90;;;;;;5098075;28;20032;-64
2021/11/17 03:07:48;;;;;;;19.85;11.40;;;9.70;99.90;;;;;;5098081;28;20024;-64
2021/11/17 03:10:40;;;;;;;21.95;11.85;;;10.10;99.90;;;;;;5098018;28;20389;-64
2021/11/17 03:13:12;;;;;;;22.45;11.95;;;9.90;99.90;;;;;;5097181;28;20424;-64
2021/11/17 03:15:47;;;;;;;21.40;11.20;;;9.80;99.90;;;;;;5098017;28;20460;-64
2021/11/17 03:18:29;;;;;;;20.70;11.95;;;9.90;99.90;;;;;;5098178;28;20061;-64
2021/11/17 03:21:13;;;;;;;20.13;11.40;;;10.00;99.90;;;;;;5096875;28;20020;-64
2021/11/17 03:24:06;;;;;;;17.73;11.07;;;10.10;99.90;;;;;;5097628;28;20404;-64
2021/11/17 03:26:41;;;;;;;18.63;10.63;;;10.10;99.90;;;;;;5096539;28;20384;-64
2021/11/17 03:29:41;;;;;;;14.63;9.15;;;9.80;99.90;;;;;;5097816;28;20042;-64
2021/11/17 03:32:19;;;;;;;19.58;10.30;;;9.80;99.90;;;;;;5098744;28;20098;-64
2021/11/17 03:35:10;;;;;;;13.45;8.32;;;10.10;99.90;;;;;;5097570;28;20020;-63
2021/11/17 03:37:42;;;;;;;15.32;9.38;;;9.80;99.90;;;;;;5097534;28;20027;-64
2021/11/17 03:40:20;;;;;;;19.45;9.80;;;10.00;99.90;;;;;;5097895;28;20052;-64
2021/11/17 03:42:56;;;;;;;14.35;9.27;;;10.00;99.90;;;;;;5097311;28;20040;-64
2021/11/17 03:45:38;;;;;;;15.75;9.13;;;9.70;99.90;;;;;;5097694;28;20024;-64
2021/11/17 03:48:38;;;;;;;17.02;10.60;;;9.60;99.90;;;;;;5097809;28;20024;-64
2021/11/17 03:51:25;;;;;;;16.30;9.55;;;9.70;99.90;;;;;;5096442;28;20021;-64
2021/11/17 03:54:14;;;;;;;18.23;9.05;;;9.30;99.90;;;;;;5097446;28;20020;-64
2021/11/17 03:57:14;;;;;;;12.20;8.00;;;10.10;99.90;;;;;;5096537;28;20020;-64
2021/11/17 03:59:59;;;;;;;11.90;7.72;;;9.60;99.90;;;;;;5096544;28;20039;-64
2021/11/17 04:02:46;;;;;;;12.30;7.47;;;9.40;99.90;;;;;;5097460;28;20024;-64
2021/11/17 04:05:54;;;;;;;12.65;7.60;;;9.80;99.90;;;;;;5096024;28;20480;-64
2021/11/17 04:08:41;;;;;;;16.60;9.05;;;9.80;99.90;;;;;;5069390;28;20040;-64
2021/11/17 04:11:13;;;;;;;10.60;8.35;;;9.50;99.90;;;;;;5095973;28;20034;-64
2021/11/17 04:13:54;;;;;;;10.00;7.55;;;9.40;99.90;;;;;;5096308;28;20024;-64
2021/11/17 04:16:45;;;;;;;9.63;6.97;;;9.70;99.90;;;;;;5097281;28;20476;-64
2021/11/17 04:19:11;;;;;;;12.00;7.78;;;10.10;99.90;;;;;;5081503;28;20480;-64
2021/11/17 04:22:00;;;;;;;13.05;7.60;;;9.50;99.90;;;;;;5097035;28;20032;-64
2021/11/17 04:24:56;;;;;;;11.70;7.75;;;9.60;99.90;;;;;;5097063;28;20016;-64
2021/11/17 04:27:31;;;;;;;9.47;7.13;;;9.60;99.90;;;;;;5097381;28;20028;-64
2021/11/17 04:30:23;;;;;;;13.68;7.30;;;9.50;99.90;;;;;;5097280;28;20024;-64
2021/11/17 04:33:10;;;;;;;15.77;8.50;;;9.80;99.90;;;;;;5099633;28;20013;-64
2021/11/17 04:35:54;;;;;;;9.65;6.93;;;9.60;99.90;;;;;;5099911;28;20032;-64
2021/11/17 04:38:50;;;;;;;9.85;7.00;;;9.80;99.90;;;;;;5100953;28;20507;-64
2021/11/17 04:41:58;;;;;;;12.40;6.50;;;10.20;99.90;;;;;;5099770;28;20511;-64
2021/11/17 04:44:42;;;;;;;11.70;7.47;;;9.80;99.90;;;;;;5072766;28;20052;-64
2021/11/17 04:47:42;;;;;;;10.45;6.95;;;9.70;99.90;;;;;;5100749;28;20032;-64
2021/11/17 04:50:23;;;;;;;9.55;7.25;;;9.50;99.90;;;;;;5100730;28;20028;-63
2021/11/17 04:52:55;;;;;;;7.70;5.97;;;9.50;99.90;;;;;;5100765;28;20024;-64
2021/11/17 04:55:30;;;;;;;7.10;5.05;;;9.80;99.90;;;;;;5100586;28;20020;-64
2021/11/17 04:58:08;;;;;;;8.82;6.28;;;9.60;99.90;;;;;;5100960;28;20024;-64
2021/11/17 05:00:36;;;;;;;8.98;5.60;;;9.00;99.90;;;;;;5100475;28;20095;-64
2021/11/17 05:03:17;;;;;;;5.35;4.85;;;9.10;99.90;;;;;;5100550;28;20028;-64
2021/11/17 05:06:06;;;;;;;5.70;4.88;;;8.90;99.90;;;;;;5100457;28;20019;-63
2021/11/17 05:09:11;;;;;;;5.15;4.57;;;9.10;99.90;;;;;;5060498;28;20457;-63
2021/11/17 05:12:16;;;;;;;6.72;4.82;;;8.50;99.90;;;;;;5100553;28;20110;-63
2021/11/17 05:14:56;;;;;;;6.75;4.63;;;8.30;99.90;;;;;;5086315;28;20069;-63
2021/11/17 05:17:31;;;;;;;6.53;4.43;;;8.20;99.90;;;;;;5098907;28;20391;-63
2021/11/17 05:20:11;;;;;;;4.82;4.32;;;8.30;99.90;;;;;;5098514;28;20085;-64
2021/11/17 05:22:49;;;;;;;6.03;4.18;;;8.10;99.90;;;;;;5100143;28;20036;-64
2021/11/17 05:25:55;;;;;;;5.38;4.85;;;8.20;99.90;;;;;;5086795;28;20399;-63
2021/11/17 05:28:33;;;;;;;3.75;3.33;;;8.10;99.90;;;;;;5100101;28;20018;-64
2021/11/17 05:31:17;;;;;;;8.88;4.82;;;8.10;99.90;;;;;;5100889;28;20028;-64
2021/11/17 05:34:01;;;;;;;5.50;4.38;;;8.20;99.90;;;;;;5099705;28;20021;-63
2021/11/17 05:36:45;;;;;;;5.32;4.68;;;8.10;99.90;;;;;;5086101;28;20027;-64
2021/11/17 05:39:29;;;;;;;6.15;4.35;;;8.30;99.90;;;;;;5099661;28;20027;-63
2021/11/17 05:41:58;;;;;;;5.22;4.35;;;7.90;99.90;;;;;;5083538;28;20472;-63
2021/11/17 05:44:55;;;;;;;6.88;5.20;;;8.10;99.90;;;;;;5098500;28;20044;-63
2021/11/17 05:47:21;;;;;;;;;;;8.20;99.90;;;;;;5100033;28;20027;-64
2021/11/17 05:50:02;;;;;;;4.30;3.78;;;8.50;99.90;;;;;;5099567;28;19904;-63
2021/11/17 05:53:05;;;;;;;6.55;4.78;;;7.90;99.90;;;;;;5099470;28;20026;-64
2021/11/17 05:56:16;;;;;;;6.03;4.60;;;7.80;99.90;;;;;;5099379;28;20023;-63
2021/11/17 05:58:59;;;;;;;9.38;5.05;;;7.80;99.90;;;;;;5017053;28;20022;-64
2021/11/17 06:01:42;;;;;;;6.72;5.20;;;8.20;99.90;;;;;;5017414;28;20033;-63
2021/11/17 06:04:10;;;;;;;5.53;5.03;;;8.30;99.90;;;;;;5078671;28;20492;-63
2021/11/17 06:06:36;;;;;;;10.20;5.90;;;8.10;99.90;;;;;;5099373;28;20028;-63
2021/11/17 06:09:02;;;;;;;;;;;8.40;99.90;;;;;;5099633;28;20073;-63
2021/11/17 06:11:48;;;;;;;5.60;4.75;;;8.30;99.90;;;;;;5099127;28;19904;-63
2021/11/17 06:14:19;;;;;;;5.28;4.43;;;7.90;99.90;;;;;;5099309;28;20032;-64
2021/11/17 06:16:51;;;;;;;4.95;4.10;;;8.40;99.90;;;;;;5099014;28;20054;-63
2021/11/17 06:19:21;;;;;;;4.13;3.72;;;8.40;99.90;;;;;;5099169;28;20023;-63
2021/11/17 06:21:48;;;;;;;4.20;3.50;;;8.50;99.90;;;;;;5098920;28;20403;-63
2021/11/17 06:24:16;;;;;;;3.85;3.35;;;8.60;99.90;;;;;;5098666;28;20059;-64
2021/11/17 06:26:44;;;;;;;5.30;4.35;;;8.60;99.90;;;;;;5099044;28;20020;-63
2021/11/17 06:29:15;;;;;;;7.68;5.05;;;8.70;99.90;;;;;;5098803;28;20023;-63
2021/11/17 06:31:41;;;;;;;4.50;4.10;;;8.60;99.90;;;;;;5099750;28;20047;-64
2021/11/17 06:34:45;;;;;;;4.75;3.85;;;8.40;99.90;;;;;;5098422;28;20051;-64
2021/11/17 06:37:16;;;;;;;7.90;5.95;;;8.60;99.90;;;;;;5098749;28;20027;-63
2021/11/17 06:39:55;;;;;;;7.88;6.20;;;8.40;99.90;;;;;;5098975;28;20448;-63
2021/11/17 06:42:33;;;;;;;6.85;4.50;;;8.50;99.90;;;;;;5098329;28;20028;-64
2021/11/17 06:45:02;;;;;;;6.63;5.15;;;8.60;99.90;;;;;;5098472;28;20054;-63
2021/11/17 06:47:28;;;;;;;4.90;4.38;;;9.00;99.90;;;;;;5098373;28;20031;-63
2021/11/17 06:49:54;;;;;;;4.90;4.40;;;8.80;99.90;;;;;;5098549;28;20020;-63
2021/11/17 06:52:23;;;;;;;6.05;4.50;;;8.90;99.90;;;;;;5098097;28;20070;-63
2021/11/17 06:54:49;;;;;;;6.93;4.20;;;8.90;99.90;;;;;;5098303;28;20111;-63
2021/11/17 06:57:18;;;;;;;6.25;3.90;;;8.60;99.90;;;;;;5098152;28;20514;-63
2021/11/17 06:59:47;;;;;;;5.47;4.30;;;9.00;99.90;;;;;;5098620;28;20115;-63
2021/11/17 07:02:14;;;;;;;6.78;4.10;;;9.10;99.90;;;;;;5098277;28;20032;-63
2021/11/17 07:04:40;;;;;;;5.88;3.92;;;8.80;99.90;;;;;;5097865;28;20030;-63
2021/11/17 07:07:09;;;;;;;4.40;4.00;;;8.90;99.90;;;;;;5098092;28;20484;-63
2021/11/17 07:09:35;;;;;;;5.95;4.63;;;8.50;99.90;;;;;;5098047;28;20021;-63
2021/11/17 07:12:01;;;;;;;5.10;4.03;;;8.70;99.90;;;;;;5097897;28;20480;-64
2021/11/17 07:14:27;;;;;;;7.10;3.90;;;8.90;99.90;;;;;;5098285;28;20061;-63
2021/11/17 07:16:53;;;;;;;5.90;4.00;;;8.90;99.90;;;;;;5097972;28;20024;-64
2021/11/17 07:19:26;;;;;;;6.13;4.18;;;8.60;99.90;;;;;;5097922;28;20024;-64
2021/11/17 07:21:57;;;;;;;4.13;3.72;;;8.80;99.90;;;;;;5085066;28;20035;-63
2021/11/17 07:24:24;;;;;;;3.72;3.20;;;8.70;99.90;;;;;;5097671;28;20107;-64
2021/11/17 07:26:51;;;;;;;4.88;3.95;;;8.70;99.90;;;;;;5097914;28;20113;-64
2021/11/17 07:29:17;;;;;;;5.78;4.65;;;8.70;99.90;;;;;;5097786;28;20028;-64
2021/11/17 07:31:44;;;;;;;5.68;3.90;;;8.90;99.90;;;;;;5098871;28;20020;-64
2021/11/17 07:34:11;;;;;;;6.18;4.57;;;8.80;99.90;;;;;;5097581;28;20033;-64
2021/11/17 07:36:41;;;;;;;9.35;4.88;;;8.80;99.90;;;;;;5097624;28;20052;-64
2021/11/17 07:39:13;;;;;;;6.38;4.95;;;9.00;99.90;;;;;;5097600;28;20020;-63
2021/11/17 07:41:40;;;;;;;5.40;4.22;;;9.50;99.90;;;;;;5097669;28;20059;-64
2021/11/17 07:44:07;;;;;;;7.80;4.97;;;9.20;99.90;;;;;;5097470;28;20067;-63
2021/11/17 07:46:33;;;;;;;7.22;4.65;;;8.90;99.90;;;;;;5097628;28;20020;-64
2021/11/17 07:48:58;;;;;;;12.80;6.53;;;9.30;99.90;;;;;;5097326;28;20069;-64
2021/11/17 07:51:25;;;;;;;6.10;5.20;;;9.30;99.90;;;;;;5097816;28;20040;-64
2021/11/17 07:53:51;;;;;;;6.05;4.75;;;9.40;99.90;;;;;;5097538;28;20074;-63
2021/11/17 07:56:17;;;;;;;5.07;4.25;;;9.40;99.90;;;;;;5097505;28;20496;-64
2021/11/17 07:58:46;;;;;;;5.05;4.20;;;9.50;99.90;;;;;;5097426;28;20036;-63
2021/11/17 08:01:14;;;;;;;4.63;3.63;;;9.60;99.90;;;;;;5096141;28;20024;-64
2021/11/17 08:03:42;;;;;;;4.40;3.75;;;9.70;99.90;;;;;;5097055;28;20039;-64
2021/11/17 08:06:11;;;;;;;5.90;4.57;;;9.70;99.90;;;;;;5097457;28;20054;-63
2021/11/17 08:08:38;;;;;;;9.90;5.03;;;10.10;99.90;;;;;;5100553;28;20031;-64
2021/11/17 08:11:07;;;;;;;8.60;4.68;;;10.00;99.90;;;;;;5101698;28;20078;-63
2021/11/17 08:13:33;;;;;;;6.13;3.35;;;10.10;99.90;;;;;;5101338;28;20052;-64
2021/11/17 08:16:00;;;;;;;3.85;3.45;;;10.30;99.90;;;;;;5100136;28;20111;-64
2021/11/17 08:18:26;;;;;;;7.30;3.58;;;10.30;99.90;;;;;;5101029;28;20115;-64
2021/11/17 08:20:53;;;;;;;5.38;4.05;;;10.50;99.90;;;;;;5101593;28;20051;-63
2021/11/17 08:23:19;;;;;;;5.63;4.40;;;10.60;99.90;;;;;;5100968;28;20078;-64
2021/11/17 08:25:47;;;;;;;6.20;4.55;;;10.70;99.90;;;;;;5099912;28;20050;-64
2021/11/17 08:28:13;;;;;;;6.28;4.70;;;10.70;99.90;;;;;;5101021;28;20016;-64
2021/11/17 08:30:40;;;;;;;7.95;4.47;;;10.80;99.90;;;;;;5102012;28;20028;-64
2021/11/17 08:33:07;;;;;;;8.32;5.43;;;10.80;99.90;;;;;;5101043;28;20034;-64
2021/11/17 08:35:34;;;;;;;7.20;4.53;;;10.60;99.90;;;;;;5100850;28;20065;-64
2021/11/17 08:38:00;;;;;;;7.88;4.63;;;11.10;99.90;;;;;;5100679;28;20503;-64
2021/11/17 08:40:29;;;;;;;5.95;3.83;;;11.40;99.90;;;;;;5101362;28;20024;-64
2021/11/17 08:42:56;;;;;;;5.93;4.13;;;11.40;99.90;;;;;;5100692;28;20381;-63
2021/11/17 08:45:22;;;;;;;4.20;3.80;;;11.20;99.90;;;;;;5100775;28;20043;-64
2021/11/17 08:47:49;;;;;;;6.93;4.82;;;11.50;99.90;;;;;;5099495;28;20020;-64
2021/11/17 08:50:20;;;;;;;6.95;3.83;;;11.30;99.90;;;;;;5100456;28;20060;-64
2021/11/17 08:52:46;;;;;;;7.15;4.68;;;11.20;99.90;;;;;;5100679;28;20028;-64
2021/11/17 08:55:12;;;;;;;8.75;5.13;;;11.20;99.90;;;;;;5100495;28;20028;-64
2021/11/17 08:57:40;;;;;;;5.03;4.22;;;11.50;99.90;;;;;;5100700;28;20024;-64
2021/11/17 09:00:09;;;;;;;5.47;4.65;;;11.20;99.90;;;;;;5100433;28;20024;-64
2021/11/17 09:02:41;;;;;;;12.48;4.22;;;12.00;99.90;;;;;;5100465;28;20042;-64
2021/11/17 09:05:11;;;;;;;7.40;4.25;;;12.00;99.90;;;;;;5100201;28;20051;-64
2021/11/17 09:07:39;;;;;;;7.65;4.72;;;12.00;99.90;;;;;;5100443;28;20031;-64
2021/11/17 09:10:06;;;;;;;5.75;4.15;;;12.30;99.90;;;;;;5100273;28;20567;-64
2021/11/17 09:12:32;;;;;;;11.02;5.13;;;12.30;99.90;;;;;;5100247;28;20073;-64
2021/11/17 09:14:58;;;;;;;8.20;4.45;;;12.70;99.90;;;;;;5100165;28;20024;-64
2021/11/17 09:17:24;;;;;;;5.40;3.45;;;12.60;99.90;;;;;;5100405;28;20020;-64
2021/11/17 09:19:50;;;;;;;5.95;3.20;;;12.80;99.90;;;;;;5098535;28;20165;-64
2021/11/17 09:22:15;;;;;;;6.47;3.33;;;12.50;99.90;;;;;;5100199;28;20016;-63
2021/11/17 09:24:41;;;;;;;6.55;3.30;;;12.80;99.90;;;;;;5099826;28;20036;-64
2021/11/17 09:27:07;;;;;;;4.30;3.10;;;12.90;99.90;;;;;;5100259;28;20028;-64
2021/11/17 09:29:34;;;;;;;5.30;3.42;;;12.50;99.90;;;;;;5100280;28;20052;-64
2021/11/17 09:32:00;;;;;;;7.47;3.20;;;12.80;99.90;;;;;;5100874;28;20016;-64
2021/11/17 09:34:26;;;;;;;7.22;2.90;;;12.50;99.90;;;;;;5099768;28;20024;-64
2021/11/17 09:36:52;;;;;;;7.22;3.75;;;13.20;99.90;;;;;;5100009;28;20049;-64
2021/11/17 09:39:18;;;;;;;7.22;3.28;;;13.10;99.90;;;;;;5098278;28;20027;-64
2021/11/17 09:41:50;;;;;;;7.60;3.00;;;12.80;99.90;;;;;;5099926;28;20387;-64
2021/11/17 09:44:25;;;;;;;3.67;3.13;;;12.80;99.90;;;;;;5099535;28;20048;-64
2021/11/17 09:46:52;;;;;;;7.93;3.47;;;12.60;99.90;;;;;;5099963;28;20023;-64
2021/11/17 09:49:48;;;;;;;5.65;3.35;;;12.70;99.90;;;;;;5099242;28;20051;-64
2021/11/17 09:52:19;;;;;;;5.70;3.15;;;12.90;99.90;;;;;;5098150;28;20027;-64
2021/11/17 09:54:54;;;;;;;4.85;2.90;;;12.90;99.90;;;;;;5099788;28;20028;-64
2021/11/17 09:57:25;;;;;;;7.20;2.80;;;13.50;99.90;;;;;;5099364;28;20020;-64
2021/11/17 10:00:09;;;;;;;4.65;2.40;;;13.50;99.90;;;;;;5099629;28;20404;-64
2021/11/17 10:02:54;;;;;;;5.13;2.92;;;13.50;99.90;;;;;;5097988;28;20031;-64
2021/11/17 10:14:20;;;;;;;5.45;2.10;;;16.20;99.90;;;;;;5099090;28;20024;-64
2021/11/17 10:16:46;;;;;;;4.63;1.83;;;16.40;99.90;;;;;;5099006;28;20027;-64
2021/11/17 10:19:26;;;;;;;2.78;1.70;;;16.60;99.90;;;;;;5098923;28;20016;-64
2021/11/17 10:22:06;;;;;;;2.38;1.80;;;16.70;99.90;;;;;;5085307;28;20032;-64
2021/11/17 10:24:53;;;;;;;4.25;1.60;;;16.00;99.90;;;;;;5098670;28;20024;-64
2021/11/17 10:27:21;;;;;;;;;;;15.50;99.90;;;;;;5099295;28;20112;-64
2021/11/17 10:30:00;;;;;;;3.28;1.63;;;15.50;99.90;;;;;;5098417;28;19915;-65
2021/11/17 10:32:48;;;;;;;2.60;1.48;;;16.10;99.90;;;;;;5099723;28;20027;-65
2021/11/17 10:35:38;;;;;;;3.90;1.70;;;16.90;99.90;;;;;;5097211;28;20028;-65
2021/11/17 10:38:26;;;;;;;3.28;1.25;;;17.00;99.90;;;;;;5083902;28;20044;-64
2021/11/17 10:40:56;;;;;;;4.75;2.38;;;16.70;99.90;;;;;;5098559;28;20020;-65
2021/11/17 10:43:29;;;;;;;12.88;2.30;;;16.60;99.90;;;;;;5098486;28;20110;-64
2021/11/17 10:46:16;;;;;;;2.17;1.70;;;16.60;99.90;;;;;;5098542;28;20024;-65
2021/11/17 10:49:05;;;;;;;2.05;1.42;;;16.60;99.90;;;;;;5098367;28;20104;-65
2021/11/17 10:51:34;;;;;;;2.35;1.40;;;16.80;99.90;;;;;;5098357;28;20400;-65
2021/11/17 10:54:11;;;;;;;2.92;1.40;;;16.70;99.90;;;;;;5098158;28;20028;-65
2021/11/17 10:56:38;;;;;;;1.83;1.10;;;16.70;99.90;;;;;;5098613;28;20032;-64
2021/11/17 10:59:05;;;;;;;4.03;1.60;;;16.50;99.90;;;;;;5098143;28;20102;-65
2021/11/17 11:01:41;;;;;;;4.15;1.30;;;16.30;99.90;;;;;;5098350;28;20024;-65
2021/11/17 11:04:16;;;;;;;2.33;1.50;;;16.70;99.90;;;;;;5098231;28;20035;-65
2021/11/17 11:06:54;;;;;;;2.93;1.30;;;17.30;99.90;;;;;;5098120;28;20027;-65
2021/11/17 11:09:32;;;;;;;2.97;1.40;;;18.40;99.90;;;;;;5097995;28;20028;-65
2021/11/17 11:12:01;;;;;;;5.18;1.50;;;18.70;99.90;;;;;;5098012;28;20027;-65
2021/11/17 11:14:34;;;;;;;4.25;1.38;;;19.10;99.90;;;;;;5098074;28;20020;-65
2021/11/17 11:17:21;;;;;;;3.72;1.45;;;18.80;99.90;;;;;;5097832;28;20381;-65
2021/11/17 11:19:49;;;;;;;2.55;1.10;;;18.20;99.90;;;;;;5097735;28;20514;-65
2021/11/17 11:22:24;;;;;;;2.83;1.20;;;17.80;99.90;;;;;;5097937;28;20031;-65
2021/11/17 11:24:53;;;;;;;1.20;1.08;;;17.50;99.90;;;;;;5097791;28;20047;-65
2021/11/17 11:27:28;;;;;;;7.90;1.52;;;17.10;99.90;;;;;;5097998;28;20514;-65
2021/11/17 11:30:03;;;;;;;2.35;1.45;;;16.60;99.90;;;;;;5097834;28;20486;-65
2021/11/17 11:32:29;;;;;;;4.90;1.45;;;16.40;99.90;;;;;;5098236;28;20024;-65
2021/11/17 11:35:01;;;;;;;2.47;1.50;;;16.00;99.90;;;;;;5097737;28;20028;-65
2021/11/17 11:37:27;;;;;;;1.45;1.10;;;16.20;99.90;;;;;;5097613;28;20446;-64
2021/11/17 11:40:06;;;;;;;7.35;1.48;;;16.40;99.90;;;;;;5097791;28;20032;-65
2021/11/17 11:42:39;;;;;;;1.13;1.00;;;16.50;99.90;;;;;;5096698;28;20031;-65
2021/11/17 11:45:07;;;;;;;6.45;1.75;;;16.60;99.90;;;;;;5097884;28;20089;-65
2021/11/17 11:47:56;;;;;;;2.83;1.27;;;16.50;99.90;;;;;;5097489;28;20023;-65
2021/11/17 11:50:35;;;;;;;3.60;1.40;;;16.60;99.90;;;;;;5096035;28;20077;-65
2021/11/17 11:53:25;;;;;;;3.85;1.48;;;16.40;99.90;;;;;;5097383;28;20100;-65
2021/11/17 11:55:53;;;;;;;3.15;1.67;;;16.50;99.90;;;;;;5097536;28;20077;-65
2021/11/17 11:58:20;;;;;;;2.00;1.48;;;16.40;99.90;;;;;;5097521;28;20020;-65
2021/11/17 12:01:17;;;;;;;2.08;1.35;;;16.50;99.90;;;;;;5097549;28;20024;-65
2021/11/17 12:03:58;;;;;;;2.67;1.20;;;16.80;99.90;;;;;;5089292;28;20033;-65
2021/11/17 12:06:52;;;;;;;4.07;1.40;;;17.00;99.90;;;;;;5097538;28;20024;-64
2021/11/17 12:09:24;;;;;;;3.88;1.48;;;17.20;99.90;;;;;;5095938;28;20047;-65
2021/11/17 12:12:00;;;;;;;2.35;1.50;;;17.00;99.90;;;;;;5097187;28;20028;-65
2021/11/17 12:14:29;;;;;;;4.97;1.33;;;16.90;99.90;;;;;;5096075;28;20028;-65
2021/11/17 12:16:55;;;;;;;2.35;1.23;;;16.70;99.90;;;;;;5097318;28;20029;-65
2021/11/17 12:19:51;;;;;;;2.78;1.23;;;16.50;99.90;;;;;;5097043;28;20060;-65
2021/11/17 12:22:36;;;;;;;5.22;1.77;;;16.40;99.90;;;;;;5079783;28;20039;-65
2021/11/17 12:25:20;;;;;;;3.08;1.70;;;16.10;99.90;;;;;;5095922;28;20040;-65
2021/11/17 12:27:49;;;;;;;2.30;1.38;;;15.80;99.90;;;;;;5097208;28;20024;-64
2021/11/17 12:30:28;;;;;;;5.95;1.85;;;15.50;99.90;;;;;;5097477;28;20032;-65
2021/11/17 12:33:02;;;;;;;3.53;1.05;;;15.40;99.90;;;;;;5098604;28;20472;-64
2021/11/17 12:35:36;;;;;;;2.53;1.48;;;15.00;99.90;;;;;;5097054;28;20023;-64
2021/11/17 12:38:11;;;;;;;4.03;1.77;;;15.00;99.90;;;;;;5097317;28;20476;-64
2021/11/17 12:40:50;;;;;;;2.47;1.20;;;14.70;99.90;;;;;;5097228;28;20381;-64
2021/11/17 12:43:41;;;;;;;3.35;2.00;;;14.80;99.90;;;;;;5097262;28;20496;-64
2021/11/17 12:46:30;;;;;;;4.70;1.40;;;14.70;99.90;;;;;;5083446;28;20020;-64
2021/11/17 12:49:13;;;;;;;2.88;1.20;;;14.80;99.90;;;;;;5095421;28;20069;-64
2021/11/17 12:52:14;;;;;;;5.68;1.52;;;15.00;99.90;;;;;;5097162;28;20027;-64
2021/11/17 12:54:48;;;;;;;1.85;1.15;;;15.10;99.90;;;;;;5067356;28;20036;-64
2021/11/17 12:57:34;;;;;;;3.72;1.42;;;14.90;99.90;;;;;;5100584;28;20047;-64
2021/11/17 13:00:22;;;;;;;2.83;1.77;;;14.90;99.90;;;;;;5100736;28;20379;-64
2021/11/17 13:02:59;;;;;;;1.60;1.20;;;14.60;99.90;;;;;;5062606;28;20039;-64
2021/11/17 13:05:43;;;;;;;2.38;1.50;;;14.40;99.90;;;;;;5100221;28;20042;-64
2021/11/17 13:08:15;;;;;;;3.50;1.50;;;14.40;99.90;;;;;;5100314;28;20380;-64
2021/11/17 13:11:09;;;;;;;1.33;1.23;;;14.40;99.90;;;;;;5100685;28;20031;-64
2021/11/17 13:13:38;;;;;;;2.90;1.83;;;14.70;99.90;;;;;;5100260;28;20484;-64
2021/11/17 13:16:09;;;;;;;2.20;1.40;;;14.70;99.90;;;;;;5100356;28;20017;-64
2021/11/17 13:18:48;;;;;;;2.28;1.30;;;14.60;99.90;;;;;;5100151;28;20125;-64
2021/11/17 13:21:31;;;;;;;1.30;1.08;;;14.80;99.90;;;;;;5098705;28;20027;-64
2021/11/17 13:23:59;;;;;;;3.45;1.35;;;15.00;99.90;;;;;;5100042;28;20024;-64
2021/11/17 13:26:26;;;;;;;2.90;1.30;;;15.20;99.90;;;;;;5099996;28;20026;-64
2021/11/17 13:28:53;;;;;;;3.50;1.75;;;15.50;99.90;;;;;;5100304;28;20468;-64
2021/11/17 13:31:36;;;;;;;4.32;1.27;;;15.70;99.90;;;;;;5101051;28;20012;-64
2021/11/17 13:34:05;;;;;;;2.88;1.40;;;15.90;99.90;;;;;;5099755;28;20075;-64
2021/11/17 13:36:52;;;;;;;2.78;1.30;;;15.40;99.90;;;;;;5099986;28;20141;-65
2021/11/17 13:39:19;;;;;;;;;;;15.30;99.90;;;;;;5100135;28;20054;-64
2021/11/17 13:41:47;;;;;;;17.33;3.25;;;15.00;99.90;;;;;;5099934;28;19940;-64
2021/11/17 13:44:15;;;;;;;1.52;1.08;;;14.90;99.90;;;;;;5099595;28;20044;-64
2021/11/17 13:47:21;;;;;;;2.13;1.10;;;14.40;99.90;;;;;;5098497;28;20025;-64
2021/11/17 13:49:51;;;;;;;2.17;0.98;;;14.60;99.90;;;;;;5017285;28;20114;-64
2021/11/17 13:52:22;;;;;;;2.13;1.10;;;14.40;99.90;;;;;;5000994;28;20022;-64
2021/11/17 13:54:48;;;;;;;4.63;1.23;;;14.50;99.90;;;;;;5061861;28;20032;-64
2021/11/17 13:57:15;;;;;;;1.40;1.00;;;14.50;99.90;;;;;;5098084;28;20028;-64
2021/11/17 13:59:42;;;;;;;1.42;1.00;;;14.50;99.90;;;;;;5098617;28;20024;-64
2021/11/17 14:02:08;;;;;;;2.45;1.17;;;14.60;99.90;;;;;;5099404;28;20051;-64
2021/11/17 14:04:34;;;;;;;1.60;1.08;;;14.40;99.90;;;;;;5098540;28;20063;-64
2021/11/17 14:07:00;;;;;;;4.53;1.25;;;14.60;99.90;;;;;;5099163;28;20024;-64
2021/11/17 14:09:27;;;;;;;1.48;0.98;;;14.80;99.90;;;;;;5097885;28;20020;-64
2021/11/17 14:11:56;;;;;;;1.45;1.08;;;14.40;99.90;;;;;;5099025;28;20532;-64
2021/11/17 14:14:22;;;;;;;1.70;1.17;;;14.40;99.90;;;;;;5099450;28;20096;-64
2021/11/17 14:16:49;;;;;;;1.65;1.15;;;14.50;99.90;;;;;;5098986;28;20534;-64
2021/11/17 14:19:14;;;;;;;4.63;1.60;;;14.30;99.90;;;;;;5099057;28;20055;-64
2021/11/17 14:21:42;;;;;;;1.80;1.35;;;14.20;99.90;;;;;;5099220;28;20032;-64
2021/11/17 14:24:10;;;;;;;1.52;1.42;;;14.40;99.90;;;;;;5098736;28;20020;-64
2021/11/17 14:26:40;;;;;;;2.15;1.50;;;14.40;99.90;;;;;;5098774;28;20533;-64
2021/11/17 14:29:24;;;;;;;1.40;1.30;;;14.20;99.90;;;;;;5099018;28;20016;-64
2021/11/17 14:31:57;;;;;;;3.80;1.60;;;14.70;99.90;;;;;;5099117;28;20022;-64
2021/11/17 14:34:24;;;;;;;1.40;1.17;;;14.70;99.90;;;;;;5098595;28;20046;-64
2021/11/17 14:36:53;;;;;;;1.38;1.10;;;14.60;99.90;;;;;;5098778;28;20077;-64
2021/11/17 14:39:21;;;;;;;1.50;1.08;;;14.80;99.90;;;;;;5098576;28;20024;-64
2021/11/17 14:41:48;;;;;;;1.52;1.27;;;14.80;99.90;;;;;;5098779;28;20094;-64
2021/11/17 14:44:15;;;;;;;1.10;0.95;;;14.60;99.90;;;;;;5098382;28;20040;-64
2021/11/17 14:46:42;;;;;;;1.40;1.00;;;14.60;99.90;;;;;;5098605;28;20016;-64
2021/11/17 14:49:10;;;;;;;1.90;0.98;;;14.90;99.90;;;;;;5098179;28;20012;-64
2021/11/17 14:51:36;;;;;;;1.40;1.10;;;14.80;99.90;;;;;;5098539;28;20074;-64
2021/11/17 14:54:02;;;;;;;5.47;1.00;;;14.70;99.90;;;;;;5098158;28;20024;-64
2021/11/17 14:56:28;;;;;;;4.30;1.38;;;14.90;99.90;;;;;;5098590;28;20056;-64
2021/11/17 14:58:54;;;;;;;2.92;2.10;;;14.60;99.90;;;;;;5096879;28;20020;-64
2021/11/17 15:01:24;;;;;;;1.60;1.00;;;14.70;99.90;;;;;;5098416;28;20028;-64
2021/11/17 15:03:52;;;;;;;2.28;1.10;;;14.40;99.90;;;;;;5097874;28;20024;-64
2021/11/17 15:06:20;;;;;;;4.47;1.40;;;14.40;99.90;;;;;;5098178;28;20023;-64
2021/11/17 15:08:47;;;;;;;1.25;0.95;;;14.30;99.90;;;;;;5096774;28;20081;-64
2021/11/17 15:11:14;;;;;;;1.73;0.93;;;14.10;99.90;;;;;;5098202;28;20023;-64
2021/11/17 15:13:40;;;;;;;2.40;1.13;;;13.90;99.90;;;;;;5098085;28;20028;-64
2021/11/17 15:16:09;;;;;;;4.68;1.20;;;14.10;99.90;;;;;;5097608;28;20028;-64
2021/11/17 15:18:37;;;;;;;1.92;1.20;;;14.00;99.90;;;;;;5082761;28;20499;-64
2021/11/17 15:21:04;;;;;;;1.05;0.95;;;13.90;99.90;;;;;;5098055;28;20077;-64
2021/11/17 15:23:32;;;;;;;1.98;1.17;;;13.90;99.90;;;;;;5096580;28;20496;-64
2021/11/17 15:26:01;;;;;;;4.20;1.50;;;13.80;99.90;;;;;;5097926;28;20455;-64
2021/11/17 15:28:34;;;;;;;3.78;1.90;;;13.50;99.90;;;;;;5096620;28;20055;-64
2021/11/17 15:31:13;;;;;;;2.38;1.10;;;13.40;99.90;;;;;;5098631;28;20020;-64
2021/11/17 15:33:39;;;;;;;1.98;1.00;;;13.40;99.90;;;;;;5097966;28;20050;-64
2021/11/17 15:36:07;;;;;;;2.83;1.30;;;13.40;99.90;;;;;;5097599;28;20020;-64
2021/11/17 15:38:34;;;;;;;8.80;1.77;;;12.80;99.90;;;;;;5096331;28;20076;-64
2021/11/17 15:41:03;;;;;;;5.88;1.73;;;12.90;99.90;;;;;;5097525;28;20396;-64
2021/11/17 15:43:29;;;;;;;6.20;2.28;;;12.90;99.90;;;;;;5097651;28;20051;-64
2021/11/17 15:45:56;;;;;;;5.07;2.05;;;12.70;99.90;;;;;;5097511;28;20012;-64
2021/11/17 15:48:24;;;;;;;2.03;1.80;;;12.60;99.90;;;;;;5097590;28;20032;-64
2021/11/17 15:50:56;;;;;;;3.00;2.20;;;12.70;99.90;;;;;;5097332;28;20546;-64
2021/11/17 15:53:23;;;;;;;3.53;1.77;;;12.60;99.90;;;;;;5097612;28;20488;-64
2021/11/17 15:55:49;;;;;;;3.35;2.28;;;12.30;99.90;;;;;;5097836;28;20021;-64
2021/11/17 15:58:16;;;;;;;6.07;2.00;;;12.30;99.90;;;;;;5097525;28;20024;-64
2021/11/17 16:00:42;;;;;;;3.55;2.30;;;12.20;99.90;;;;;;5097544;28;20070;-64
2021/11/17 16:03:08;;;;;;;4.15;2.80;;;12.00;99.90;;;;;;5097071;28;20051;-64